createdAt,value
2022-09-07T00:01:43.627Z,6.27
2022-09-07T00:04:13.857Z,6.25
2022-09-07T00:06:44.228Z,6.17
2022-09-07T00:09:16.009Z,6.05
2022-09-07T00:11:46.849Z,6.09
2022-09-07T00:14:17.209Z,6.08
2022-09-07T00:16:47.707Z,6.06
2022-09-07T00:19:18.018Z,6.06
2022-09-07T00:21:48.617Z,6.02
2022-09-07T00:24:20.457Z,5.94
2022-09-07T00:26:50.850Z,5.90
2022-09-07T00:29:21.027Z,5.78
2022-09-07T00:31:51.539Z,5.71
2022-09-07T00:34:21.667Z,5.75
2022-09-07T00:36:52.107Z,5.83
2022-09-07T00:39:23.858Z,5.81
2022-09-07T00:41:54.357Z,5.70
2022-09-07T00:45:01.555Z,5.64
2022-09-07T00:47:39.767Z,5.68
2022-09-07T00:50:16.599Z,5.61
2022-09-07T00:52:50.187Z,5.53
2022-09-07T00:55:22.518Z,5.59
2022-09-07T00:57:56.327Z,5.57
2022-09-07T01:00:27.648Z,5.58
2022-09-07T01:02:58.661Z,5.57
2022-09-07T01:05:33.489Z,5.50
2022-09-07T01:08:04.140Z,5.47
2022-09-07T01:10:36.347Z,5.55
2022-09-07T01:13:07.298Z,5.54
2022-09-07T01:15:45.478Z,5.55
2022-09-07T01:18:26.825Z,5.41
2022-09-07T01:21:26.637Z,5.42
2022-09-07T01:24:32.928Z,5.42
2022-09-07T01:27:36.735Z,5.47
2022-09-07T01:30:11.324Z,5.39
2022-09-07T01:32:56.267Z,5.33
2022-09-07T01:35:47.197Z,5.28
2022-09-07T01:38:25.397Z,5.15
2022-09-07T01:41:04.249Z,5.11
2022-09-07T01:43:42.075Z,5.20
2022-09-07T01:46:19.257Z,5.24
2022-09-07T01:48:53.654Z,5.24
2022-09-07T01:51:27.725Z,5.20
2022-09-07T01:54:03.744Z,5.15
2022-09-07T01:56:38.164Z,4.98
2022-09-07T01:59:19.515Z,4.88
2022-09-07T02:01:58.080Z,4.87
2022-09-07T02:04:33.665Z,4.91
2022-09-07T02:07:11.924Z,4.94
2022-09-07T02:09:46.895Z,4.88
2022-09-07T02:12:23.084Z,4.89
2022-09-07T02:14:58.194Z,4.91
2022-09-07T02:17:34.754Z,4.95
2022-09-07T02:20:13.835Z,4.99
2022-09-07T02:22:47.665Z,5.02
2022-09-07T02:25:22.797Z,4.98
2022-09-07T02:27:56.894Z,4.98
2022-09-07T02:30:27.055Z,4.94
2022-09-07T02:32:58.924Z,4.93
2022-09-07T02:35:28.735Z,4.87
2022-09-07T02:38:00.154Z,4.87
2022-09-07T02:40:30.377Z,4.87
2022-09-07T02:43:03.601Z,4.81
2022-09-07T02:45:43.750Z,4.83
2022-09-07T02:48:28.088Z,4.71
2022-09-07T02:51:11.579Z,4.56
2022-09-07T02:54:04.249Z,4.50
2022-09-07T02:56:47.469Z,4.45
2022-09-07T02:59:41.870Z,4.46
2022-09-07T03:02:21.325Z,4.48
2022-09-07T03:05:01.063Z,4.39
2022-09-07T03:07:37.552Z,4.32
2022-09-07T03:10:11.749Z,4.29
2022-09-07T03:12:45.147Z,4.35
2022-09-07T03:15:16.749Z,4.39
2022-09-07T03:17:48.038Z,4.37
2022-09-07T03:20:19.959Z,4.39
2022-09-07T03:22:51.979Z,4.42
2022-09-07T03:25:23.550Z,4.32
2022-09-07T03:27:53.802Z,4.38
2022-09-07T03:30:24.229Z,4.42
2022-09-07T03:32:54.549Z,4.44
2022-09-07T03:35:26.089Z,4.48
2022-09-07T03:37:56.473Z,4.38
2022-09-07T03:40:26.558Z,4.30
2022-09-07T03:42:56.617Z,4.23
2022-09-07T03:45:27.209Z,4.25
2022-09-07T03:47:57.348Z,4.26
2022-09-07T03:50:29.470Z,4.29
2022-09-07T03:53:00.010Z,4.24
2022-09-07T03:55:30.168Z,4.24
2022-09-07T03:58:00.657Z,4.22
2022-09-07T04:00:30.869Z,4.25
2022-09-07T04:03:01.377Z,4.28
2022-09-07T04:05:34.129Z,4.20
2022-09-07T04:08:04.799Z,4.25
2022-09-07T04:10:38.839Z,4.27
2022-09-07T04:13:10.429Z,4.19
2022-09-07T04:15:40.840Z,4.15
2022-09-07T04:18:11.279Z,4.14
2022-09-07T04:20:42.999Z,4.20
2022-09-07T04:23:13.509Z,4.17
2022-09-07T04:25:49.960Z,4.13
2022-09-07T04:28:22.277Z,4.16
2022-09-07T04:30:52.491Z,4.12
2022-09-07T04:33:23.216Z,4.12
2022-09-07T04:35:54.775Z,4.11
2022-09-07T04:38:25.444Z,4.13
2022-09-07T04:41:02.097Z,4.20
2022-09-07T04:43:32.657Z,4.23
2022-09-07T04:46:05.688Z,4.34
2022-09-07T04:48:36.608Z,4.41
2022-09-07T04:51:09.597Z,4.47
2022-09-07T04:53:40.494Z,4.55
2022-09-07T04:56:15.040Z,4.61
2022-09-07T04:58:48.296Z,4.66
2022-09-07T05:01:20.535Z,4.70
2022-09-07T05:03:51.726Z,4.75
2022-09-07T05:06:24.430Z,4.80
2022-09-07T05:08:56.296Z,4.78
2022-09-07T05:11:29.185Z,4.81
2022-09-07T05:14:00.549Z,4.86
2022-09-07T05:16:31.555Z,4.92
2022-09-07T05:19:03.747Z,5.00
2022-09-07T05:21:36.794Z,5.06
2022-09-07T05:24:08.486Z,5.13
2022-09-07T05:26:40.098Z,5.22
2022-09-07T05:32:00.825Z,5.43
2022-09-07T05:34:32.674Z,5.48
2022-09-07T05:37:04.875Z,5.58
2022-09-07T05:39:35.355Z,5.64
2022-09-07T05:42:06.515Z,5.71
2022-09-07T05:44:45.009Z,5.87
2022-09-07T05:47:16.606Z,6.00
2022-09-07T05:49:47.105Z,6.11
2022-09-07T05:52:18.657Z,6.24
2022-09-07T05:54:49.056Z,6.36
2022-09-07T05:57:19.507Z,6.50
2022-09-07T05:59:50.364Z,6.68
2022-09-07T06:02:21.237Z,6.78
2022-09-07T06:04:51.557Z,6.94
2022-09-07T06:07:29.584Z,7.09
2022-09-07T06:12:51.377Z,7.39
2022-09-07T06:15:22.125Z,7.56
2022-09-07T06:17:54.035Z,7.74
2022-09-07T06:20:24.393Z,7.98
2022-09-07T06:22:57.518Z,8.28
2022-09-07T06:25:27.734Z,8.67
2022-09-07T06:27:59.997Z,9.01
2022-09-07T06:30:30.515Z,9.50
2022-09-07T06:33:01.608Z,10.04
2022-09-07T06:35:32.633Z,10.57
2022-09-07T06:38:05.046Z,11.04
2022-09-07T06:40:38.037Z,11.34
2022-09-07T06:43:09.774Z,11.55
2022-09-07T06:45:40.044Z,11.81
2022-09-07T06:48:10.516Z,12.03
2022-09-07T06:50:41.005Z,12.31
2022-09-07T06:56:06.958Z,13.04
2022-09-07T06:58:42.162Z,13.45
2022-09-07T07:01:15.718Z,13.82
2022-09-07T07:03:46.967Z,14.12
2022-09-07T07:06:17.875Z,14.03
2022-09-07T07:08:49.986Z,14.77
2022-09-07T07:11:20.216Z,14.35
2022-09-07T07:13:50.617Z,14.51
2022-09-07T07:16:20.958Z,14.76
2022-09-07T07:18:52.694Z,14.86
2022-09-07T07:21:22.527Z,15.51
2022-09-07T07:23:55.674Z,15.75
2022-09-07T07:26:27.924Z,15.78
2022-09-07T07:31:35.431Z,15.04
2022-09-07T07:34:05.964Z,14.87
2022-09-07T07:36:36.083Z,14.58
2022-09-07T07:39:08.443Z,14.97
2022-09-07T07:42:00.318Z,15.25
2022-09-07T07:44:37.948Z,15.39
2022-09-07T07:47:09.597Z,15.92
2022-09-07T07:49:42.898Z,16.56
2022-09-07T07:57:58.568Z,17.68
2022-09-07T08:00:57.264Z,18.28
2022-09-07T08:03:29.633Z,18.12
2022-09-07T08:06:38.335Z,19.08
2022-09-07T08:09:18.358Z,19.53
2022-09-07T08:11:51.567Z,19.34
2022-09-07T08:14:23.308Z,18.75
2022-09-07T08:16:53.895Z,18.72
2022-09-07T08:19:37.885Z,18.34
2022-09-07T08:22:13.404Z,18.76
2022-09-07T08:24:45.937Z,18.64
2022-09-07T08:27:21.574Z,18.92
2022-09-07T08:29:55.676Z,18.76
2022-09-07T08:32:30.728Z,17.64
2022-09-07T08:35:12.387Z,18.54
2022-09-07T08:37:50.666Z,19.35
2022-09-07T08:40:24.597Z,19.57
2022-09-07T08:43:09.165Z,19.71
2022-09-07T08:45:46.148Z,20.39
2022-09-07T08:48:34.132Z,20.71
2022-09-07T08:51:30.405Z,20.78
2022-09-07T08:54:06.917Z,20.55
2022-09-07T09:01:30.495Z,20.24
2022-09-07T09:06:11.038Z,21.17
2022-09-07T09:07:19.285Z,20.93
2022-09-07T09:10:21.636Z,21.63
2022-09-07T09:13:04.767Z,21.27
2022-09-07T09:15:54.936Z,20.83
2022-09-07T09:18:45.186Z,21.27
2022-09-07T09:21:17.256Z,22.32
2022-09-07T09:23:51.716Z,22.19
2022-09-07T09:26:26.766Z,21.82
2022-09-07T09:28:57.775Z,21.85
2022-09-07T09:31:36.410Z,22.29
2022-09-07T09:34:13.717Z,22.56
2022-09-07T09:36:47.000Z,22.58
2022-09-07T09:39:29.668Z,22.20
2022-09-07T09:42:26.746Z,21.35
2022-09-07T09:45:29.970Z,21.74
2022-09-07T09:48:08.005Z,21.14
2022-09-07T09:54:29.008Z,22.35
2022-09-07T09:57:13.632Z,22.31
2022-09-07T10:00:08.519Z,22.40
2022-09-07T10:06:55.891Z,22.24
2022-09-07T10:10:05.731Z,22.15
2022-09-07T10:12:59.776Z,22.03
2022-09-07T10:16:25.426Z,22.05
2022-09-07T10:19:02.176Z,21.87
2022-09-07T10:21:34.454Z,21.84
2022-09-07T10:24:17.594Z,21.16
2022-09-07T10:27:03.405Z,20.50
2022-09-07T10:30:33.897Z,20.27
2022-09-07T10:33:11.976Z,19.79
2022-09-07T10:35:50.965Z,19.70
2022-09-07T10:38:32.892Z,19.93
2022-09-07T10:41:07.734Z,19.62
2022-09-07T10:43:51.757Z,19.58
2022-09-07T10:46:57.696Z,19.75
2022-09-07T10:49:35.307Z,19.81
2022-09-07T10:57:09.897Z,19.80
2022-09-07T11:00:11.488Z,19.93
2022-09-07T11:08:04.316Z,19.50
2022-09-07T11:10:57.055Z,19.59
2022-09-07T11:14:12.134Z,19.94
2022-09-07T11:16:55.508Z,19.70
2022-09-07T11:19:41.604Z,19.64
2022-09-07T11:22:38.966Z,19.57
2022-09-07T11:25:29.428Z,19.76
2022-09-07T11:28:19.024Z,19.82
2022-09-07T11:30:59.302Z,19.69
2022-09-07T11:33:35.275Z,19.64
2022-09-07T11:36:12.445Z,19.79
2022-09-07T11:38:47.406Z,19.70
2022-09-07T11:41:30.649Z,19.53
2022-09-07T11:44:23.867Z,19.38
2022-09-07T11:47:06.627Z,19.69
2022-09-07T11:49:37.316Z,19.74
2022-09-07T11:52:17.396Z,19.43
2022-09-07T11:54:53.676Z,19.70
2022-09-07T11:57:55.816Z,19.96
2022-09-07T12:00:33.244Z,19.99
2022-09-07T12:03:59.812Z,20.05
2022-09-07T12:07:28.597Z,20.37
2022-09-07T12:10:34.935Z,20.24
2022-09-07T12:13:37.485Z,19.73
2022-09-07T12:16:27.885Z,19.93
2022-09-07T12:19:25.422Z,20.13
2022-09-07T12:22:29.407Z,20.24
2022-09-07T12:25:26.574Z,19.82
2022-09-07T12:28:39.642Z,19.70
2022-09-07T12:31:58.583Z,20.18
2022-09-07T12:35:01.936Z,20.49
2022-09-07T12:37:41.736Z,20.24
2022-09-07T12:41:02.283Z,20.58
2022-09-07T12:44:11.486Z,20.74
2022-09-07T12:46:58.559Z,20.87
2022-09-07T12:49:51.807Z,20.99
2022-09-07T12:52:58.255Z,20.90
2022-09-07T12:56:18.140Z,20.49
2022-09-07T12:59:37.636Z,20.23
2022-09-07T13:02:34.252Z,20.52
2022-09-07T13:05:18.586Z,20.48
2022-09-07T13:08:15.007Z,20.61
2022-09-07T13:10:47.786Z,20.46
2022-09-07T13:21:33.515Z,20.83
2022-09-07T13:24:55.606Z,21.66
2022-09-07T13:36:40.343Z,20.75
2022-09-07T13:40:04.613Z,19.41
2022-09-07T13:43:49.968Z,19.64
2022-09-07T13:47:47.505Z,19.72
2022-09-07T13:51:55.987Z,19.58
2022-09-07T13:55:15.087Z,19.24
2022-09-07T13:58:00.975Z,19.06
2022-09-07T14:00:52.793Z,18.63
2022-09-07T14:03:32.065Z,18.55
2022-09-07T14:07:05.956Z,18.32
2022-09-07T14:10:25.153Z,18.35
2022-09-07T14:13:29.382Z,18.02
2022-09-07T14:16:06.116Z,17.86
2022-09-07T14:18:36.576Z,18.00
2022-09-07T14:21:09.441Z,17.99
2022-09-07T14:23:40.281Z,17.81
2022-09-07T14:26:17.319Z,17.83
2022-09-07T14:28:51.463Z,17.86
2022-09-07T14:31:23.915Z,17.99
2022-09-07T14:33:55.870Z,17.92
2022-09-07T14:36:45.340Z,18.19
2022-09-07T14:39:18.876Z,18.26
2022-09-07T14:41:49.628Z,18.23
2022-09-07T14:44:36.753Z,18.29
2022-09-07T14:47:13.459Z,18.34
2022-09-07T14:49:43.808Z,18.14
2022-09-07T14:52:21.601Z,17.92
2022-09-07T14:54:55.062Z,17.85
2022-09-07T14:57:51.563Z,17.94
2022-09-07T15:00:35.931Z,17.83
2022-09-07T15:03:38.360Z,17.67
2022-09-07T15:06:09.775Z,17.45
2022-09-07T15:08:43.439Z,17.39
2022-09-07T15:14:12.978Z,17.48
2022-09-07T15:16:46.796Z,17.25
2022-09-07T15:19:32.448Z,17.32
2022-09-07T15:22:14.200Z,17.24
2022-09-07T15:24:45.985Z,17.18
2022-09-07T15:27:23.320Z,17.27
2022-09-07T15:29:53.628Z,17.36
2022-09-07T15:32:25.167Z,17.31
2022-09-07T15:34:55.618Z,17.31
2022-09-07T15:40:20.570Z,17.36
2022-09-07T15:43:19.471Z,17.26
2022-09-07T15:45:42.250Z,17.20
2022-09-07T15:48:16.967Z,17.11
2022-09-07T15:50:47.318Z,17.01
2022-09-07T15:56:08.595Z,16.83
2022-09-07T15:58:38.644Z,16.77
2022-09-07T16:04:04.685Z,16.65
2022-09-07T16:06:35.902Z,16.63
2022-09-07T16:09:06.531Z,16.59
2022-09-07T16:11:37.649Z,16.45
2022-09-07T16:14:08.018Z,16.41
2022-09-07T16:19:34.621Z,16.24
2022-09-07T16:22:05.860Z,16.17
2022-09-07T16:24:36.698Z,16.09
2022-09-07T16:27:08.410Z,16.07
2022-09-07T16:29:39.127Z,15.95
2022-09-07T16:35:01.668Z,15.69
2022-09-07T16:37:32.334Z,15.66
2022-09-07T16:40:02.532Z,15.60
2022-09-07T16:42:37.100Z,15.54
2022-09-07T16:47:59.220Z,15.42
2022-09-07T16:50:31.080Z,15.30
2022-09-07T16:53:01.036Z,15.22
2022-09-07T16:55:31.408Z,15.23
2022-09-07T17:00:51.850Z,15.01
2022-09-07T17:03:21.896Z,14.94
2022-09-07T17:05:53.718Z,14.83
2022-09-07T17:08:23.760Z,14.71
2022-09-07T17:10:59.600Z,14.62
2022-09-07T17:13:29.969Z,14.59
2022-09-07T17:16:04.840Z,14.47
2022-09-07T17:21:30.360Z,14.40
2022-09-07T17:24:00.616Z,14.38
2022-09-07T17:26:31.351Z,14.31
2022-09-07T17:29:01.929Z,14.21
2022-09-07T17:34:24.340Z,14.03
2022-09-07T17:36:56.078Z,13.79
2022-09-07T17:39:25.711Z,13.72
2022-09-07T17:41:55.910Z,13.58
2022-09-07T17:44:26.108Z,13.42
2022-09-07T17:46:56.179Z,13.32
2022-09-07T17:49:27.248Z,13.23
2022-09-07T17:52:00.274Z,13.15
2022-09-07T17:54:30.728Z,13.02
2022-09-07T17:57:00.980Z,12.82
2022-09-07T18:02:22.528Z,12.72
2022-09-07T18:04:52.726Z,12.65
2022-09-07T18:07:24.198Z,12.50
2022-09-07T18:09:54.428Z,12.40
2022-09-07T18:12:24.320Z,12.28
2022-09-07T18:14:54.188Z,12.19
2022-09-07T18:17:24.339Z,11.99
2022-09-07T18:19:54.890Z,11.89
2022-09-07T18:22:26.812Z,11.91
2022-09-07T18:24:58.978Z,11.80
2022-09-07T18:27:31.348Z,11.67
2022-09-07T18:30:01.287Z,11.49
2022-09-07T18:32:31.979Z,11.33
2022-09-07T18:35:02.131Z,11.27
2022-09-07T18:37:36.528Z,11.24
2022-09-07T18:40:09.495Z,11.18
2022-09-07T18:42:43.430Z,11.18
2022-09-07T18:45:29.702Z,11.08
2022-09-07T18:48:00.489Z,10.93
2022-09-07T18:50:32.216Z,10.90
2022-09-07T18:53:15.457Z,10.81
2022-09-07T18:55:47.124Z,10.63
2022-09-07T18:58:18.023Z,10.64
2022-09-07T19:00:54.219Z,10.69
2022-09-07T19:03:26.188Z,10.71
2022-09-07T19:06:00.854Z,10.66
2022-09-07T19:08:35.295Z,10.74
2022-09-07T19:11:09.386Z,10.75
2022-09-07T19:13:40.904Z,10.68
2022-09-07T19:16:13.783Z,10.61
2022-09-07T19:18:49.019Z,10.54
2022-09-07T19:21:44.227Z,10.52
2022-09-07T19:24:19.208Z,10.46
2022-09-07T19:26:51.211Z,10.40
2022-09-07T19:29:23.671Z,10.28
2022-09-07T19:32:07.890Z,10.19
2022-09-07T19:34:40.038Z,10.12
2022-09-07T19:37:12.736Z,10.01
2022-09-07T19:39:46.530Z,9.97
2022-09-07T19:42:17.376Z,9.95
2022-09-07T19:44:48.030Z,9.90
2022-09-07T19:47:19.168Z,9.94
2022-09-07T19:49:49.979Z,9.85
2022-09-07T19:52:20.191Z,9.85
2022-09-07T19:54:52.062Z,9.92
2022-09-07T19:57:21.816Z,9.84
2022-09-07T19:59:53.423Z,9.83
2022-09-07T20:02:23.591Z,9.74
2022-09-07T20:04:54.389Z,9.69
2022-09-07T20:07:24.851Z,9.60
2022-09-07T20:09:56.691Z,9.62
2022-09-07T20:12:26.712Z,9.63
2022-09-07T20:14:57.283Z,9.62
2022-09-07T20:17:30.606Z,9.49
2022-09-07T20:20:03.672Z,9.47
2022-09-07T20:22:33.932Z,9.41
2022-09-07T20:25:09.180Z,9.40
2022-09-07T20:27:41.441Z,9.26
2022-09-07T20:30:13.058Z,9.18
2022-09-07T20:32:43.261Z,9.10
2022-09-07T20:35:13.861Z,9.07
2022-09-07T20:37:44.011Z,8.99
2022-09-07T20:40:16.045Z,8.88
2022-09-07T20:42:46.191Z,8.83
2022-09-07T20:45:16.703Z,8.87
2022-09-07T20:47:48.542Z,8.83
2022-09-07T20:50:19.551Z,8.76
2022-09-07T20:52:49.691Z,8.69
2022-09-07T20:55:25.581Z,8.62
2022-09-07T20:57:56.722Z,8.61
2022-09-07T21:00:26.931Z,8.61
2022-09-07T21:02:58.091Z,8.60
2022-09-07T21:05:28.412Z,8.59
2022-09-07T21:08:04.872Z,8.63
2022-09-07T21:10:40.451Z,8.63
2022-09-07T21:13:11.022Z,8.58
2022-09-07T21:15:42.310Z,8.48
2022-09-07T21:18:16.831Z,8.43
2022-09-07T21:21:18.501Z,8.36
2022-09-07T21:23:47.672Z,8.32
2022-09-07T21:26:22.913Z,8.27
2022-09-07T21:28:57.536Z,8.23
2022-09-07T21:31:28.975Z,8.18
2022-09-07T21:34:00.871Z,8.15
2022-09-07T21:36:32.580Z,8.12
2022-09-07T21:39:02.752Z,8.08
2022-09-07T21:41:34.661Z,8.06
2022-09-07T21:44:05.803Z,8.05
2022-09-07T21:46:38.089Z,7.96
2022-09-07T21:49:08.391Z,7.92
2022-09-07T21:51:38.745Z,7.95
2022-09-07T21:54:09.338Z,7.96
2022-09-07T21:56:46.357Z,8.00
2022-09-07T21:59:16.901Z,8.04
2022-09-07T22:01:47.302Z,8.10
2022-09-07T22:04:17.721Z,8.10
2022-09-07T22:06:48.362Z,8.04
2022-09-07T22:09:18.541Z,7.91
2022-09-07T22:11:50.766Z,7.83
2022-09-07T22:14:21.093Z,7.77
2022-09-07T22:16:51.579Z,7.77
2022-09-07T22:19:22.561Z,7.75
2022-09-07T22:21:54.061Z,7.69
2022-09-07T22:24:24.101Z,7.66
2022-09-07T22:26:56.062Z,7.67
2022-09-07T22:29:26.421Z,7.68
2022-09-07T22:31:56.621Z,7.68
2022-09-07T22:34:27.073Z,7.57
2022-09-07T22:36:57.482Z,7.53
2022-09-07T22:39:27.687Z,7.54
2022-09-07T22:41:59.571Z,7.64
2022-09-07T22:44:30.309Z,7.67
2022-09-07T22:47:00.904Z,7.70
2022-09-07T22:49:31.161Z,7.68
2022-09-07T22:52:01.623Z,7.67
2022-09-07T22:54:31.991Z,7.57
2022-09-07T22:57:03.942Z,7.55
2022-09-07T22:59:34.212Z,7.57
2022-09-07T23:02:05.089Z,7.59
2022-09-07T23:04:35.219Z,7.54
2022-09-07T23:07:07.922Z,7.44
2022-09-07T23:09:38.035Z,7.40
2022-09-07T23:12:10.275Z,7.35
2022-09-07T23:14:40.446Z,7.37
2022-09-07T23:17:10.857Z,7.32
2022-09-07T23:19:41.016Z,7.27
2022-09-07T23:22:11.455Z,7.25
2022-09-07T23:24:41.907Z,7.25
2022-09-07T23:27:13.676Z,7.21
2022-09-07T23:29:43.328Z,7.29
2022-09-07T23:32:13.648Z,7.19
2022-09-07T23:34:43.669Z,7.26
2022-09-07T23:37:14.070Z,7.18
2022-09-07T23:39:44.894Z,7.18
2022-09-07T23:42:16.999Z,7.24
2022-09-07T23:44:48.749Z,7.20
2022-09-07T23:47:19.181Z,7.21
2022-09-07T23:49:49.169Z,7.24
2022-09-07T23:52:19.169Z,7.29
2022-09-07T23:54:49.442Z,7.32
2022-09-07T23:57:21.018Z,7.32
2022-09-07T23:59:51.539Z,7.32
